sensor_id;sensor_type;location;lat;lon;timestamp;pressure;altitude;pressure_sealevel;temperature;humidity
77027;BME280;65956;52.986;17.490;2023-05-29T00:01:20;100674.58;;;12.03;60.58
77027;BME280;65956;52.986;17.490;2023-05-29T00:03:47;100671.82;;;12.02;60.72
77027;BME280;65956;52.986;17.490;2023-05-29T00:06:13;100668.77;;;12.04;60.65
77027;BME280;65956;52.986;17.490;2023-05-29T00:08:39;100670.05;;;12.04;60.53
77027;BME280;65956;52.986;17.490;2023-05-29T00:11:05;100670.30;;;12.04;60.54
77027;BME280;65956;52.986;17.490;2023-05-29T00:13:31;100666.46;;;12.05;60.53
77027;BME280;65956;52.986;17.490;2023-05-29T00:15:57;100670.29;;;12.04;60.74
77027;BME280;65956;52.986;17.490;2023-05-29T00:18:25;100670.03;;;11.99;60.66
77027;BME280;65956;52.986;17.490;2023-05-29T00:20:51;100668.23;;;11.92;60.76
77027;BME280;65956;52.986;17.490;2023-05-29T00:23:19;100668.39;;;11.87;61.45
77027;BME280;65956;52.986;17.490;2023-05-29T00:25:45;100670.99;;;11.82;61.47
77027;BME280;65956;52.986;17.490;2023-05-29T00:28:11;100670.17;;;11.76;61.89
77027;BME280;65956;52.986;17.490;2023-05-29T00:30:39;100671.16;;;11.72;62.11
77027;BME280;65956;52.986;17.490;2023-05-29T00:33:05;100671.13;;;11.72;62.09
77027;BME280;65956;52.986;17.490;2023-05-29T00:35:31;100670.30;;;11.71;62.02
77027;BME280;65956;52.986;17.490;2023-05-29T00:37:57;100668.69;;;11.73;62.00
77027;BME280;65956;52.986;17.490;2023-05-29T00:40:25;100667.52;;;11.70;62.07
77027;BME280;65956;52.986;17.490;2023-05-29T00:42:51;100667.38;;;11.74;62.66
77027;BME280;65956;52.986;17.490;2023-05-29T00:45:17;100670.41;;;11.75;62.40
77027;BME280;65956;52.986;17.490;2023-05-29T00:47:44;100672.48;;;11.75;62.42
77027;BME280;65956;52.986;17.490;2023-05-29T00:50:11;100672.30;;;11.78;62.61
77027;BME280;65956;52.986;17.490;2023-05-29T00:52:42;100671.97;;;11.82;62.29
77027;BME280;65956;52.986;17.490;2023-05-29T00:55:10;100672.55;;;11.84;62.69
77027;BME280;65956;52.986;17.490;2023-05-29T00:57:36;100679.05;;;11.86;62.53
77027;BME280;65956;52.986;17.490;2023-05-29T01:00:07;100669.19;;;11.83;62.58
77027;BME280;65956;52.986;17.490;2023-05-29T01:02:43;100670.91;;;11.86;62.63
77027;BME280;65956;52.986;17.490;2023-05-29T01:05:11;100677.30;;;11.86;62.67
77027;BME280;65956;52.986;17.490;2023-05-29T01:07:38;100677.14;;;11.86;62.98
77027;BME280;65956;52.986;17.490;2023-05-29T01:10:05;100673.21;;;11.85;62.83
77027;BME280;65956;52.986;17.490;2023-05-29T01:20:44;100678.86;;;11.79;62.89
77027;BME280;65956;52.986;17.490;2023-05-29T01:29:03;100677.40;;;11.82;62.34
77027;BME280;65956;52.986;17.490;2023-05-29T01:31:32;100671.92;;;11.79;62.43
77027;BME280;65956;52.986;17.490;2023-05-29T01:34:00;100677.49;;;11.77;62.38
77027;BME280;65956;52.986;17.490;2023-05-29T01:36:26;100676.80;;;11.76;62.39
77027;BME280;65956;52.986;17.490;2023-05-29T01:38:55;100675.27;;;11.75;62.47
77027;BME280;65956;52.986;17.490;2023-05-29T01:41:23;100680.77;;;11.74;62.37
77027;BME280;65956;52.986;17.490;2023-05-29T01:43:49;100680.92;;;11.73;62.09
77027;BME280;65956;52.986;17.490;2023-05-29T01:46:18;100681.16;;;11.73;62.38
77027;BME280;65956;52.986;17.490;2023-05-29T01:48:45;100683.21;;;11.72;62.29
77027;BME280;65956;52.986;17.490;2023-05-29T01:51:12;100682.23;;;11.72;62.26
77027;BME280;65956;52.986;17.490;2023-05-29T01:53:39;100683.48;;;11.70;62.49
77027;BME280;65956;52.986;17.490;2023-05-29T01:56:06;100684.59;;;11.67;62.67
77027;BME280;65956;52.986;17.490;2023-05-29T01:58:38;100677.82;;;11.63;62.64
77027;BME280;65956;52.986;17.490;2023-05-29T02:01:06;100676.98;;;11.61;62.31
77027;BME280;65956;52.986;17.490;2023-05-29T02:03:33;100677.46;;;11.57;62.58
77027;BME280;65956;52.986;17.490;2023-05-29T02:05:59;100678.83;;;11.49;62.31
77027;BME280;65956;52.986;17.490;2023-05-29T02:08:26;100673.59;;;11.29;62.48
77027;BME280;65956;52.986;17.490;2023-05-29T02:10:52;100677.66;;;11.10;62.81
77027;BME280;65956;52.986;17.490;2023-05-29T02:13:18;100678.48;;;10.93;62.99
77027;BME280;65956;52.986;17.490;2023-05-29T02:15:45;100678.36;;;10.83;63.70
77027;BME280;65956;52.986;17.490;2023-05-29T02:18:14;100676.63;;;10.77;64.32
77027;BME280;65956;52.986;17.490;2023-05-29T02:20:40;100675.14;;;10.68;64.98
77027;BME280;65956;52.986;17.490;2023-05-29T02:23:10;100671.55;;;10.60;65.93
77027;BME280;65956;52.986;17.490;2023-05-29T02:25:36;100673.24;;;10.57;66.34
77027;BME280;65956;52.986;17.490;2023-05-29T02:28:03;100678.20;;;10.55;66.90
77027;BME280;65956;52.986;17.490;2023-05-29T02:30:29;100678.84;;;10.55;67.11
77027;BME280;65956;52.986;17.490;2023-05-29T02:32:56;100677.76;;;10.56;67.38
77027;BME280;65956;52.986;17.490;2023-05-29T02:35:22;100674.11;;;10.57;67.66
77027;BME280;65956;52.986;17.490;2023-05-29T02:37:50;100674.63;;;10.59;67.44
77027;BME280;65956;52.986;17.490;2023-05-29T02:40:16;100671.32;;;10.60;67.54
77027;BME280;65956;52.986;17.490;2023-05-29T02:42:43;100669.00;;;10.60;67.37
77027;BME280;65956;52.986;17.490;2023-05-29T02:45:09;100670.80;;;10.59;67.24
77027;BME280;65956;52.986;17.490;2023-05-29T02:47:35;100672.06;;;10.58;67.28
77027;BME280;65956;52.986;17.490;2023-05-29T02:50:02;100671.26;;;10.57;67.68
77027;BME280;65956;52.986;17.490;2023-05-29T02:52:32;100669.58;;;10.57;67.52
77027;BME280;65956;52.986;17.490;2023-05-29T02:54:58;100667.56;;;10.56;67.93
77027;BME280;65956;52.986;17.490;2023-05-29T02:57:28;100672.90;;;10.56;67.82
77027;BME280;65956;52.986;17.490;2023-05-29T02:59:54;100670.84;;;10.56;67.84
77027;BME280;65956;52.986;17.490;2023-05-29T03:02:20;100674.34;;;10.56;68.11
77027;BME280;65956;52.986;17.490;2023-05-29T03:04:46;100673.48;;;10.58;67.99
77027;BME280;65956;52.986;17.490;2023-05-29T03:07:16;100675.58;;;10.55;68.30
77027;BME280;65956;52.986;17.490;2023-05-29T03:09:42;100675.40;;;10.51;68.80
77027;BME280;65956;52.986;17.490;2023-05-29T03:12:09;100675.52;;;10.45;69.16
77027;BME280;65956;52.986;17.490;2023-05-29T03:14:35;100677.61;;;10.40;69.30
77027;BME280;65956;52.986;17.490;2023-05-29T03:17:05;100680.58;;;10.34;69.95
77027;BME280;65956;52.986;17.490;2023-05-29T03:19:31;100682.76;;;10.29;70.46
77027;BME280;65956;52.986;17.490;2023-05-29T03:21:57;100681.42;;;10.23;70.67
77027;BME280;65956;52.986;17.490;2023-05-29T03:24:23;100680.42;;;10.18;70.82
77027;BME280;65956;52.986;17.490;2023-05-29T03:26:49;100679.36;;;10.17;70.88
77027;BME280;65956;52.986;17.490;2023-05-29T03:29:17;100685.36;;;10.21;70.60
77027;BME280;65956;52.986;17.490;2023-05-29T03:31:43;100685.45;;;10.25;70.53
77027;BME280;65956;52.986;17.490;2023-05-29T03:34:10;100684.05;;;10.30;70.28
77027;BME280;65956;52.986;17.490;2023-05-29T03:36:40;100688.42;;;10.39;69.81
77027;BME280;65956;52.986;17.490;2023-05-29T03:39:07;100689.36;;;10.46;69.38
77027;BME280;65956;52.986;17.490;2023-05-29T03:41:33;100690.35;;;10.50;69.18
77027;BME280;65956;52.986;17.490;2023-05-29T03:43:59;100686.55;;;10.55;68.87
77027;BME280;65956;52.986;17.490;2023-05-29T03:46:27;100689.05;;;10.63;68.30
77027;BME280;65956;52.986;17.490;2023-05-29T03:48:53;100682.25;;;10.72;67.97
77027;BME280;65956;52.986;17.490;2023-05-29T03:51:20;100685.66;;;10.82;67.40
77027;BME280;65956;52.986;17.490;2023-05-29T03:53:47;100681.80;;;10.92;66.98
77027;BME280;65956;52.986;17.490;2023-05-29T03:56:13;100685.80;;;11.00;66.68
77027;BME280;65956;52.986;17.490;2023-05-29T03:58:40;100689.08;;;11.08;66.33
77027;BME280;65956;52.986;17.490;2023-05-29T04:01:06;100690.02;;;11.15;66.01
77027;BME280;65956;52.986;17.490;2023-05-29T04:03:34;100695.99;;;11.22;65.84
77027;BME280;65956;52.986;17.490;2023-05-29T04:06:01;100694.60;;;11.28;65.57
77027;BME280;65956;52.986;17.490;2023-05-29T04:08:27;100696.09;;;11.31;65.40
77027;BME280;65956;52.986;17.490;2023-05-29T04:10:53;100694.03;;;11.36;64.98
77027;BME280;65956;52.986;17.490;2023-05-29T04:13:20;100690.76;;;11.43;64.78
77027;BME280;65956;52.986;17.490;2023-05-29T04:15:46;100691.35;;;11.53;64.48
77027;BME280;65956;52.986;17.490;2023-05-29T04:18:13;100696.80;;;11.63;64.07
77027;BME280;65956;52.986;17.490;2023-05-29T04:20:40;100701.73;;;11.70;63.60
77027;BME280;65956;52.986;17.490;2023-05-29T04:23:07;100694.05;;;11.77;63.47
77027;BME280;65956;52.986;17.490;2023-05-29T04:25:33;100697.02;;;11.83;63.32
77027;BME280;65956;52.986;17.490;2023-05-29T04:28:00;100702.32;;;11.88;63.34
77027;BME280;65956;52.986;17.490;2023-05-29T04:30:28;100696.90;;;11.89;63.57
77027;BME280;65956;52.986;17.490;2023-05-29T04:32:54;100696.75;;;11.89;62.87
77027;BME280;65956;52.986;17.490;2023-05-29T04:35:22;100702.79;;;11.93;62.10
77027;BME280;65956;52.986;17.490;2023-05-29T04:37:55;100702.77;;;12.01;62.06
77027;BME280;65956;52.986;17.490;2023-05-29T04:40:22;100698.13;;;12.03;61.21
77027;BME280;65956;52.986;17.490;2023-05-29T04:42:49;100700.29;;;12.14;61.74
77027;BME280;65956;52.986;17.490;2023-05-29T04:45:19;100699.56;;;12.22;60.85
77027;BME280;65956;52.986;17.490;2023-05-29T04:47:46;100703.35;;;12.30;60.65
77027;BME280;65956;52.986;17.490;2023-05-29T04:50:13;100702.61;;;12.38;60.78
77027;BME280;65956;52.986;17.490;2023-05-29T04:52:40;100708.25;;;12.46;60.29
77027;BME280;65956;52.986;17.490;2023-05-29T04:55:07;100708.52;;;12.53;59.76
77027;BME280;65956;52.986;17.490;2023-05-29T04:57:33;100709.27;;;12.61;59.78
77027;BME280;65956;52.986;17.490;2023-05-29T04:59:59;100707.25;;;12.75;59.91
77027;BME280;65956;52.986;17.490;2023-05-29T05:02:25;100710.69;;;12.87;59.78
77027;BME280;65956;52.986;17.490;2023-05-29T05:04:51;100708.88;;;13.01;59.43
77027;BME280;65956;52.986;17.490;2023-05-29T05:07:17;100714.00;;;13.17;59.84
77027;BME280;65956;52.986;17.490;2023-05-29T05:09:43;100713.19;;;13.34;59.24
77027;BME280;65956;52.986;17.490;2023-05-29T05:12:13;100717.77;;;13.42;58.60
77027;BME280;65956;52.986;17.490;2023-05-29T05:14:39;100718.92;;;13.52;58.79
77027;BME280;65956;52.986;17.490;2023-05-29T05:17:05;100720.70;;;13.61;58.42
77027;BME280;65956;52.986;17.490;2023-05-29T05:19:31;100717.79;;;13.73;59.16
77027;BME280;65956;52.986;17.490;2023-05-29T05:21:57;100721.12;;;13.86;58.72
77027;BME280;65956;52.986;17.490;2023-05-29T05:24:23;100718.20;;;13.96;58.50
77027;BME280;65956;52.986;17.490;2023-05-29T05:26:49;100719.53;;;14.11;58.25
77027;BME280;65956;52.986;17.490;2023-05-29T05:29:15;100716.51;;;14.20;57.35
77027;BME280;65956;52.986;17.490;2023-05-29T05:31:41;100715.88;;;14.31;57.47
77027;BME280;65956;52.986;17.490;2023-05-29T05:34:07;100716.71;;;14.41;57.44
77027;BME280;65956;52.986;17.490;2023-05-29T05:36:33;100719.57;;;14.49;57.18
77027;BME280;65956;52.986;17.490;2023-05-29T05:39:05;100721.45;;;14.55;55.94
77027;BME280;65956;52.986;17.490;2023-05-29T05:41:32;100713.30;;;14.47;55.83
77027;BME280;65956;52.986;17.490;2023-05-29T05:43:58;100720.04;;;14.48;56.19
77027;BME280;65956;52.986;17.490;2023-05-29T05:46:32;100723.35;;;14.63;56.84
77027;BME280;65956;52.986;17.490;2023-05-29T05:48:58;100725.95;;;14.80;56.14
77027;BME280;65956;52.986;17.490;2023-05-29T05:51:26;100725.09;;;14.93;55.48
77027;BME280;65956;52.986;17.490;2023-05-29T05:53:53;100729.84;;;15.00;54.88
77027;BME280;65956;52.986;17.490;2023-05-29T05:56:19;100737.17;;;15.05;54.25
77027;BME280;65956;52.986;17.490;2023-05-29T05:58:45;100735.52;;;15.09;54.35
77027;BME280;65956;52.986;17.490;2023-05-29T06:01:11;100738.24;;;15.11;54.34
77027;BME280;65956;52.986;17.490;2023-05-29T06:03:37;100739.45;;;15.11;54.11
77027;BME280;65956;52.986;17.490;2023-05-29T06:06:08;100741.67;;;15.07;54.21
77027;BME280;65956;52.986;17.490;2023-05-29T06:08:35;100745.23;;;15.09;54.27
77027;BME280;65956;52.986;17.490;2023-05-29T06:11:01;100738.84;;;15.14;54.63
77027;BME280;65956;52.986;17.490;2023-05-29T06:13:28;100739.73;;;15.20;54.06
77027;BME280;65956;52.986;17.490;2023-05-29T06:16:03;100743.79;;;15.27;54.91
77027;BME280;65956;52.986;17.490;2023-05-29T06:18:29;100738.30;;;15.39;54.57
77027;BME280;65956;52.986;17.490;2023-05-29T06:20:56;100739.46;;;15.47;53.97
77027;BME280;65956;52.986;17.490;2023-05-29T06:23:22;100737.36;;;15.54;53.91
77027;BME280;65956;52.986;17.490;2023-05-29T06:25:48;100741.00;;;15.65;54.32
77027;BME280;65956;52.986;17.490;2023-05-29T06:28:15;100742.57;;;15.79;54.50
77027;BME280;65956;52.986;17.490;2023-05-29T06:30:41;100745.25;;;15.94;54.01
77027;BME280;65956;52.986;17.490;2023-05-29T06:33:08;100739.66;;;16.05;53.64
77027;BME280;65956;52.986;17.490;2023-05-29T06:35:35;100743.04;;;16.14;53.19
77027;BME280;65956;52.986;17.490;2023-05-29T06:38:01;100742.17;;;16.11;52.43
77027;BME280;65956;52.986;17.490;2023-05-29T06:40:27;100739.42;;;16.15;53.56
77027;BME280;65956;52.986;17.490;2023-05-29T06:42:53;100742.27;;;16.27;52.99
77027;BME280;65956;52.986;17.490;2023-05-29T06:45:23;100744.43;;;16.38;52.78
77027;BME280;65956;52.986;17.490;2023-05-29T06:47:50;100744.20;;;16.49;52.20
77027;BME280;65956;52.986;17.490;2023-05-29T06:50:16;100742.45;;;16.59;50.96
77027;BME280;65956;52.986;17.490;2023-05-29T06:52:42;100741.39;;;16.66;51.30
77027;BME280;65956;52.986;17.490;2023-05-29T06:55:25;100745.89;;;16.76;51.17
77027;BME280;65956;52.986;17.490;2023-05-29T06:57:52;100740.66;;;16.80;50.92
77027;BME280;65956;52.986;17.490;2023-05-29T07:00:19;100740.65;;;16.90;51.14
77027;BME280;65956;52.986;17.490;2023-05-29T07:02:52;100745.21;;;16.99;50.25
77027;BME280;65956;52.986;17.490;2023-05-29T07:05:18;100750.36;;;16.97;49.93
77027;BME280;65956;52.986;17.490;2023-05-29T07:07:44;100754.14;;;16.96;49.74
77027;BME280;65956;52.986;17.490;2023-05-29T07:10:11;100760.00;;;17.02;50.07
77027;BME280;65956;52.986;17.490;2023-05-29T07:12:37;100755.42;;;17.05;49.11
77027;BME280;65956;52.986;17.490;2023-05-29T07:15:04;100756.94;;;17.13;49.54
77027;BME280;65956;52.986;17.490;2023-05-29T07:17:30;100759.17;;;17.16;48.94
77027;BME280;65956;52.986;17.490;2023-05-29T07:20:05;100761.08;;;17.22;49.45
77027;BME280;65956;52.986;17.490;2023-05-29T07:22:34;100765.73;;;17.27;49.16
77027;BME280;65956;52.986;17.490;2023-05-29T07:25:01;100762.02;;;17.34;49.25
77027;BME280;65956;52.986;17.490;2023-05-29T07:27:27;100761.10;;;17.41;48.97
77027;BME280;65956;52.986;17.490;2023-05-29T07:29:53;100762.06;;;17.44;48.93
77027;BME280;65956;52.986;17.490;2023-05-29T07:32:19;100770.27;;;17.48;49.18
77027;BME280;65956;52.986;17.490;2023-05-29T07:34:47;100769.69;;;17.51;49.10
77027;BME280;65956;52.986;17.490;2023-05-29T07:37:16;100767.90;;;17.57;48.66
77027;BME280;65956;52.986;17.490;2023-05-29T07:39:44;100778.37;;;17.60;48.71
77027;BME280;65956;52.986;17.490;2023-05-29T07:42:43;100778.21;;;17.59;49.09
77027;BME280;65956;52.986;17.490;2023-05-29T07:45:09;100780.17;;;17.71;49.59
77027;BME280;65956;52.986;17.490;2023-05-29T07:47:35;100780.23;;;17.78;48.90
77027;BME280;65956;52.986;17.490;2023-05-29T07:50:02;100782.62;;;17.81;49.11
77027;BME280;65956;52.986;17.490;2023-05-29T07:52:28;100780.91;;;17.85;48.75
77027;BME280;65956;52.986;17.490;2023-05-29T07:54:54;100775.27;;;17.86;48.31
77027;BME280;65956;52.986;17.490;2023-05-29T07:57:21;100774.25;;;17.96;49.12
77027;BME280;65956;52.986;17.490;2023-05-29T07:59:47;100767.77;;;18.01;48.50
77027;BME280;65956;52.986;17.490;2023-05-29T08:02:16;100773.54;;;18.19;49.34
77027;BME280;65956;52.986;17.490;2023-05-29T08:05:05;100771.14;;;18.29;48.61
77027;BME280;65956;52.986;17.490;2023-05-29T08:07:34;100773.30;;;18.33;49.17
77027;BME280;65956;52.986;17.490;2023-05-29T08:10:00;100770.70;;;18.34;48.94
77027;BME280;65956;52.986;17.490;2023-05-29T08:12:26;100776.56;;;18.36;48.74
77027;BME280;65956;52.986;17.490;2023-05-29T08:14:54;100769.23;;;18.37;48.99
77027;BME280;65956;52.986;17.490;2023-05-29T08:17:20;100774.66;;;18.43;49.35
77027;BME280;65956;52.986;17.490;2023-05-29T08:19:46;100782.98;;;18.57;48.32
77027;BME280;65956;52.986;17.490;2023-05-29T08:22:13;100782.98;;;18.54;46.96
77027;BME280;65956;52.986;17.490;2023-05-29T08:24:41;100784.59;;;18.54;47.26
77027;BME280;65956;52.986;17.490;2023-05-29T08:27:07;100786.65;;;18.70;47.24
77027;BME280;65956;52.986;17.490;2023-05-29T08:29:33;100789.00;;;18.79;45.75
77027;BME280;65956;52.986;17.490;2023-05-29T08:31:59;100799.61;;;18.82;45.93
77027;BME280;65956;52.986;17.490;2023-05-29T08:34:25;100797.71;;;18.87;46.01
77027;BME280;65956;52.986;17.490;2023-05-29T08:36:51;100795.05;;;19.04;45.91
77027;BME280;65956;52.986;17.490;2023-05-29T08:39:17;100794.10;;;19.04;45.32
77027;BME280;65956;52.986;17.490;2023-05-29T08:41:59;100792.23;;;19.12;45.21
77027;BME280;65956;52.986;17.490;2023-05-29T08:44:30;100795.98;;;19.26;44.47
77027;BME280;65956;52.986;17.490;2023-05-29T08:46:59;100794.60;;;19.10;43.21
77027;BME280;65956;52.986;17.490;2023-05-29T08:49:28;100789.36;;;19.09;43.66
77027;BME280;65956;52.986;17.490;2023-05-29T08:52:02;100789.34;;;19.26;43.69
77027;BME280;65956;52.986;17.490;2023-05-29T08:54:33;100791.02;;;19.22;43.49
77027;BME280;65956;52.986;17.490;2023-05-29T08:57:00;100795.84;;;19.23;44.01
77027;BME280;65956;52.986;17.490;2023-05-29T08:59:27;100793.02;;;19.14;43.85
77027;BME280;65956;52.986;17.490;2023-05-29T09:01:55;100799.30;;;19.08;44.36
77027;BME280;65956;52.986;17.490;2023-05-29T09:04:22;100798.94;;;19.04;44.71
77027;BME280;65956;52.986;17.490;2023-05-29T09:06:49;100797.26;;;19.04;45.12
77027;BME280;65956;52.986;17.490;2023-05-29T09:09:15;100803.71;;;18.93;45.60
77027;BME280;65956;52.986;17.490;2023-05-29T09:11:43;100799.81;;;18.98;45.79
77027;BME280;65956;52.986;17.490;2023-05-29T09:14:41;100799.04;;;19.10;45.34
77027;BME280;65956;52.986;17.490;2023-05-29T09:17:09;100795.96;;;19.10;45.84
77027;BME280;65956;52.986;17.490;2023-05-29T09:19:35;100798.05;;;19.21;45.43
77027;BME280;65956;52.986;17.490;2023-05-29T09:22:06;100796.88;;;19.39;45.62
77027;BME280;65956;52.986;17.490;2023-05-29T09:24:34;100798.10;;;19.80;45.49
77027;BME280;65956;52.986;17.490;2023-05-29T09:27:00;100792.27;;;20.17;45.03
77027;BME280;65956;52.986;17.490;2023-05-29T09:29:30;100800.42;;;20.31;44.16
77027;BME280;65956;52.986;17.490;2023-05-29T09:31:56;100795.45;;;20.26;43.99
77027;BME280;65956;52.986;17.490;2023-05-29T09:34:25;100797.84;;;20.22;43.68
77027;BME280;65956;52.986;17.490;2023-05-29T09:37:06;100791.39;;;20.35;43.20
77027;BME280;65956;52.986;17.490;2023-05-29T09:39:45;100790.42;;;20.45;43.22
77027;BME280;65956;52.986;17.490;2023-05-29T09:42:13;100787.59;;;20.79;41.73
77027;BME280;65956;52.986;17.490;2023-05-29T09:44:43;100787.90;;;20.70;40.74
77027;BME280;65956;52.986;17.490;2023-05-29T09:47:14;100791.30;;;20.45;39.02
77027;BME280;65956;52.986;17.490;2023-05-29T09:49:41;100786.99;;;20.47;39.44
77027;BME280;65956;52.986;17.490;2023-05-29T09:52:08;100783.83;;;20.77;38.99
77027;BME280;65956;52.986;17.490;2023-05-29T09:54:38;100785.38;;;21.04;38.93
77027;BME280;65956;52.986;17.490;2023-05-29T09:57:05;100787.51;;;21.06;38.27
77027;BME280;65956;52.986;17.490;2023-05-29T09:59:32;100786.76;;;20.90;38.03
77027;BME280;65956;52.986;17.490;2023-05-29T10:02:05;100791.95;;;21.07;37.96
77027;BME280;65956;52.986;17.490;2023-05-29T10:04:47;100782.39;;;21.35;36.95
77027;BME280;65956;52.986;17.490;2023-05-29T10:09:44;100787.64;;;21.47;36.51
77027;BME280;65956;52.986;17.490;2023-05-29T10:12:13;100793.07;;;21.40;35.32
77027;BME280;65956;52.986;17.490;2023-05-29T10:14:43;100789.90;;;21.52;33.93
77027;BME280;65956;52.986;17.490;2023-05-29T10:17:18;100783.39;;;21.73;33.86
77027;BME280;65956;52.986;17.490;2023-05-29T10:19:48;100783.20;;;21.94;34.36
77027;BME280;65956;52.986;17.490;2023-05-29T10:22:19;100780.98;;;22.35;34.39
77027;BME280;65956;52.986;17.490;2023-05-29T10:24:48;100775.55;;;22.68;33.84
77027;BME280;65956;52.986;17.490;2023-05-29T10:27:16;100773.61;;;22.71;34.23
77027;BME280;65956;52.986;17.490;2023-05-29T10:35:08;100777.05;;;21.86;34.39
77027;BME280;65956;52.986;17.490;2023-05-29T10:37:46;100779.09;;;21.66;34.90
77027;BME280;65956;52.986;17.490;2023-05-29T10:40:13;100774.20;;;21.98;32.81
77027;BME280;65956;52.986;17.490;2023-05-29T10:42:47;100776.76;;;22.28;32.81
77027;BME280;65956;52.986;17.490;2023-05-29T10:50:36;100777.05;;;22.96;30.40
77027;BME280;65956;52.986;17.490;2023-05-29T10:53:02;100777.98;;;22.41;31.31
77027;BME280;65956;52.986;17.490;2023-05-29T10:55:38;100775.74;;;22.37;32.51
77027;BME280;65956;52.986;17.490;2023-05-29T10:58:13;100774.13;;;22.57;31.66
77027;BME280;65956;52.986;17.490;2023-05-29T11:00:42;100770.09;;;22.70;30.60
77027;BME280;65956;52.986;17.490;2023-05-29T11:03:09;100772.64;;;23.00;30.05
77027;BME280;65956;52.986;17.490;2023-05-29T11:08:42;100766.23;;;23.17;30.45
77027;BME280;65956;52.986;17.490;2023-05-29T11:11:15;100761.48;;;22.53;30.30
77027;BME280;65956;52.986;17.490;2023-05-29T11:13:41;100763.55;;;22.57;29.93
77027;BME280;65956;52.986;17.490;2023-05-29T11:16:35;100757.09;;;23.19;29.60
77027;BME280;65956;52.986;17.490;2023-05-29T11:19:07;100749.45;;;23.94;28.89
77027;BME280;65956;52.986;17.490;2023-05-29T11:22:00;100752.77;;;24.27;27.39
77027;BME280;65956;52.986;17.490;2023-05-29T11:24:32;100757.62;;;24.48;27.36
77027;BME280;65956;52.986;17.490;2023-05-29T11:26:58;100743.95;;;24.75;27.35
77027;BME280;65956;52.986;17.490;2023-05-29T11:29:30;100745.91;;;24.58;27.10
77027;BME280;65956;52.986;17.490;2023-05-29T11:32:05;100747.81;;;24.66;26.98
77027;BME280;65956;52.986;17.490;2023-05-29T11:34:39;100746.52;;;25.04;25.01
77027;BME280;65956;52.986;17.490;2023-05-29T11:37:06;100752.10;;;24.84;24.74
77027;BME280;65956;52.986;17.490;2023-05-29T11:39:35;100745.37;;;24.69;24.83
77027;BME280;65956;52.986;17.490;2023-05-29T11:42:02;100746.42;;;25.16;24.93
77027;BME280;65956;52.986;17.490;2023-05-29T11:44:28;100745.93;;;25.69;24.34
77027;BME280;65956;52.986;17.490;2023-05-29T11:47:04;100746.15;;;25.99;24.56
77027;BME280;65956;52.986;17.490;2023-05-29T11:49:33;100743.77;;;25.94;24.14
77027;BME280;65956;52.986;17.490;2023-05-29T11:52:07;100738.27;;;25.76;24.87
77027;BME280;65956;52.986;17.490;2023-05-29T11:54:34;100732.48;;;25.67;25.02
77027;BME280;65956;52.986;17.490;2023-05-29T11:57:03;100735.05;;;25.53;25.16
77027;BME280;65956;52.986;17.490;2023-05-29T11:59:32;100735.02;;;25.45;24.80
77027;BME280;65956;52.986;17.490;2023-05-29T12:02:01;100734.23;;;25.68;24.64
77027;BME280;65956;52.986;17.490;2023-05-29T12:04:28;100729.77;;;25.93;24.49
77027;BME280;65956;52.986;17.490;2023-05-29T12:06:54;100736.03;;;26.36;24.00
77027;BME280;65956;52.986;17.490;2023-05-29T12:09:28;100738.41;;;26.50;24.42
77027;BME280;65956;52.986;17.490;2023-05-29T12:12:01;100742.30;;;26.24;23.76
77027;BME280;65956;52.986;17.490;2023-05-29T12:14:27;100741.54;;;25.98;24.33
77027;BME280;65956;52.986;17.490;2023-05-29T12:16:53;100737.69;;;25.72;23.78
77027;BME280;65956;52.986;17.490;2023-05-29T12:19:19;100732.13;;;25.85;24.26
77027;BME280;65956;52.986;17.490;2023-05-29T12:21:45;100737.45;;;25.86;24.90
77027;BME280;65956;52.986;17.490;2023-05-29T12:24:11;100732.59;;;25.62;25.23
77027;BME280;65956;52.986;17.490;2023-05-29T12:26:37;100737.69;;;25.50;24.93
77027;BME280;65956;52.986;17.490;2023-05-29T12:29:04;100734.29;;;25.77;25.09
77027;BME280;65956;52.986;17.490;2023-05-29T12:31:32;100736.20;;;26.88;22.87
77027;BME280;65956;52.986;17.490;2023-05-29T12:34:07;100725.33;;;28.40;21.67
77027;BME280;65956;52.986;17.490;2023-05-29T12:36:33;100723.50;;;29.87;21.17
77027;BME280;65956;52.986;17.490;2023-05-29T12:38:59;100723.88;;;31.15;20.35
77027;BME280;65956;52.986;17.490;2023-05-29T12:41:29;100716.81;;;32.42;18.91
77027;BME280;65956;52.986;17.490;2023-05-29T12:44:04;100716.23;;;32.88;17.09
77027;BME280;65956;52.986;17.490;2023-05-29T12:46:38;100713.67;;;33.32;17.04
77027;BME280;65956;52.986;17.490;2023-05-29T12:49:17;100709.91;;;33.84;16.39
77027;BME280;65956;52.986;17.490;2023-05-29T12:51:46;100708.57;;;33.65;15.89
77027;BME280;65956;52.986;17.490;2023-05-29T12:54:14;100704.25;;;33.64;16.01
77027;BME280;65956;52.986;17.490;2023-05-29T12:56:41;100700.80;;;33.73;15.97
77027;BME280;65956;52.986;17.490;2023-05-29T12:59:08;100703.30;;;33.65;16.45
77027;BME280;65956;52.986;17.490;2023-05-29T13:01:35;100704.97;;;33.19;16.58
77027;BME280;65956;52.986;17.490;2023-05-29T13:04:01;100702.85;;;33.04;16.84
77027;BME280;65956;52.986;17.490;2023-05-29T13:06:27;100702.58;;;32.40;17.01
77027;BME280;65956;52.986;17.490;2023-05-29T13:08:53;100704.37;;;32.39;17.28
77027;BME280;65956;52.986;17.490;2023-05-29T13:11:19;100705.59;;;33.21;16.70
77027;BME280;65956;52.986;17.490;2023-05-29T13:13:46;100703.34;;;33.38;16.28
77027;BME280;65956;52.986;17.490;2023-05-29T13:16:12;100698.89;;;33.41;16.27